LQTZ/TZL METAR and TAF weather

Enter ICAO airport designator
Station Type Date Time Source
LQTZ METAR 2022/01/25 04:00 UTC NOAA

LQTZ 250400Z 03002KT 3500 BR NSC M13/M13 Q1034


Station Type Date Time Source
LQTZ Decoded METAR 2022/01/25 04:00 UTC NOAA

Tuzla, Bosnia and Herzegovina (LQTZ) 44-33N 018-42E
Jan 24, 2022 - 11:00 PM EST / 2022.01.25 0400 UTC
Wind: from the NNE (030 degrees) at 2 MPH (2 KT):0
Visibility: 2 mile(s):0
Weather: mist
Temperature: 8 F (-13 C)
Dew Point: 8 F (-13 C)
Relative Humidity: 100%
Pressure (altimeter): 30.53 in. Hg (1034 hPa)
ob: LQTZ 250400Z 03002KT 3500 BR NSC M13/M13 Q1034
cycle: 4

Station Type Date Time Source
LQTZ TAF 2022/01/24 18:07 UTC NOAA

TAF LQTZ 241700Z 2418/2518 29005KT CAVOK TXM01/2513Z TNM10/2506Z PROB40 2420/2508 2000 BR PROB30
TEMPO 2502/2508 0200 FZFG BKN002

Example: see airport list